sensor_id;sensor_type;location;lat;lon;timestamp;pressure;altitude;pressure_sealevel;temperature;humidity
36980;BME280;22891;50.562;7.272;2022-08-03T00:00:49;100847.00;;;19.77;nan
36980;BME280;22891;50.562;7.272;2022-08-03T00:03:15;100867.00;;;19.80;nan
36980;BME280;22891;50.562;7.272;2022-08-03T00:05:41;100873.00;;;19.70;nan
36980;BME280;22891;50.562;7.272;2022-08-03T00:08:07;100862.00;;;19.75;nan
36980;BME280;22891;50.562;7.272;2022-08-03T00:10:32;100856.00;;;19.78;nan
36980;BME280;22891;50.562;7.272;2022-08-03T00:12:58;100865.00;;;19.68;nan
36980;BME280;22891;50.562;7.272;2022-08-03T00:15:25;100859.00;;;19.62;nan
36980;BME280;22891;50.562;7.272;2022-08-03T00:17:50;100855.00;;;19.56;nan
36980;BME280;22891;50.562;7.272;2022-08-03T00:20:16;100839.00;;;19.40;nan
36980;BME280;22891;50.562;7.272;2022-08-03T00:22:42;100833.00;;;19.30;nan
36980;BME280;22891;50.562;7.272;2022-08-03T00:25:07;100810.00;;;19.06;nan
36980;BME280;22891;50.562;7.272;2022-08-03T00:27:34;100815.00;;;19.12;nan
36980;BME280;22891;50.562;7.272;2022-08-03T00:30:00;100816.00;;;19.29;nan
36980;BME280;22891;50.562;7.272;2022-08-03T00:32:26;100823.00;;;19.24;nan
36980;BME280;22891;50.562;7.272;2022-08-03T00:34:52;100822.00;;;19.19;nan
36980;BME280;22891;50.562;7.272;2022-08-03T00:37:18;100791.00;;;18.81;nan
36980;BME280;22891;50.562;7.272;2022-08-03T00:39:43;100818.00;;;18.88;nan
36980;BME280;22891;50.562;7.272;2022-08-03T00:42:11;100808.00;;;18.79;nan
36980;BME280;22891;50.562;7.272;2022-08-03T00:44:39;100811.00;;;18.61;nan
36980;BME280;22891;50.562;7.272;2022-08-03T00:47:06;100795.00;;;18.55;nan
36980;BME280;22891;50.562;7.272;2022-08-03T00:49:32;100797.00;;;18.46;nan
36980;BME280;22891;50.562;7.272;2022-08-03T00:51:59;100801.00;;;18.54;nan
36980;BME280;22891;50.562;7.272;2022-08-03T00:54:25;100805.00;;;18.71;nan
36980;BME280;22891;50.562;7.272;2022-08-03T00:56:52;100811.00;;;18.74;nan
36980;BME280;22891;50.562;7.272;2022-08-03T00:59:19;100811.00;;;18.80;nan
36980;BME280;22891;50.562;7.272;2022-08-03T01:01:45;100827.00;;;18.90;nan
36980;BME280;22891;50.562;7.272;2022-08-03T01:04:11;100824.00;;;18.66;nan
36980;BME280;22891;50.562;7.272;2022-08-03T01:06:58;100817.00;;;18.37;nan
36980;BME280;22891;50.562;7.272;2022-08-03T01:11:09;100798.00;;;18.37;nan
36980;BME280;22891;50.562;7.272;2022-08-03T01:13:50;100801.00;;;18.48;nan
36980;BME280;22891;50.562;7.272;2022-08-03T01:16:32;100809.00;;;18.52;nan
36980;BME280;22891;50.562;7.272;2022-08-03T01:20:35;100797.00;;;18.46;nan
36980;BME280;22891;50.562;7.272;2022-08-03T01:31:03;100805.00;;;18.53;nan
36980;BME280;22891;50.562;7.272;2022-08-03T01:39:25;100803.00;;;18.40;nan
36980;BME280;22891;50.562;7.272;2022-08-03T01:41:57;100795.00;;;18.48;nan
36980;BME280;22891;50.562;7.272;2022-08-03T01:44:25;100781.00;;;18.46;nan
36980;BME280;22891;50.562;7.272;2022-08-03T01:47:00;100778.00;;;18.41;nan
36980;BME280;22891;50.562;7.272;2022-08-03T01:49:27;100782.00;;;18.32;nan
36980;BME280;22891;50.562;7.272;2022-08-03T01:51:55;100763.00;;;18.12;nan
36980;BME280;22891;50.562;7.272;2022-08-03T01:54:22;100762.00;;;18.02;nan
36980;BME280;22891;50.562;7.272;2022-08-03T01:56:51;100745.00;;;17.89;nan
36980;BME280;22891;50.562;7.272;2022-08-03T01:59:19;100730.00;;;17.91;nan
36980;BME280;22891;50.562;7.272;2022-08-03T02:01:47;100718.00;;;17.91;nan
36980;BME280;22891;50.562;7.272;2022-08-03T02:04:16;100722.00;;;17.91;nan
36980;BME280;22891;50.562;7.272;2022-08-03T02:06:44;100722.00;;;17.94;nan
36980;BME280;22891;50.562;7.272;2022-08-03T02:09:12;100720.00;;;18.00;nan
36980;BME280;22891;50.562;7.272;2022-08-03T02:11:39;100735.00;;;18.11;nan
36980;BME280;22891;50.562;7.272;2022-08-03T02:14:07;100733.00;;;18.04;nan
36980;BME280;22891;50.562;7.272;2022-08-03T02:16:34;100723.00;;;17.72;nan
36980;BME280;22891;50.562;7.272;2022-08-03T02:19:03;100712.00;;;17.70;nan
36980;BME280;22891;50.562;7.272;2022-08-03T02:21:32;100703.00;;;17.71;nan
36980;BME280;22891;50.562;7.272;2022-08-03T02:24:00;100707.00;;;17.85;nan
36980;BME280;22891;50.562;7.272;2022-08-03T02:26:29;100711.00;;;18.00;nan
36980;BME280;22891;50.562;7.272;2022-08-03T02:28:58;100724.00;;;17.94;nan
36980;BME280;22891;50.562;7.272;2022-08-03T02:31:27;100725.00;;;17.94;nan
36980;BME280;22891;50.562;7.272;2022-08-03T02:33:58;100721.00;;;17.98;nan
36980;BME280;22891;50.562;7.272;2022-08-03T02:36:27;100736.00;;;18.00;nan
36980;BME280;22891;50.562;7.272;2022-08-03T02:38:56;100751.00;;;18.05;nan
36980;BME280;22891;50.562;7.272;2022-08-03T02:41:28;100762.00;;;18.02;nan
36980;BME280;22891;50.562;7.272;2022-08-03T02:43:56;100774.00;;;17.93;nan
36980;BME280;22891;50.562;7.272;2022-08-03T02:46:29;100764.00;;;17.78;nan
36980;BME280;22891;50.562;7.272;2022-08-03T02:48:59;100747.00;;;17.66;nan
36980;BME280;22891;50.562;7.272;2022-08-03T02:51:29;100736.00;;;17.51;nan
36980;BME280;22891;50.562;7.272;2022-08-03T02:53:57;100715.00;;;17.43;nan
36980;BME280;22891;50.562;7.272;2022-08-03T02:56:25;100710.00;;;17.41;nan
36980;BME280;22891;50.562;7.272;2022-08-03T02:58:52;100290.00;;;17.28;nan
36980;BME280;22891;50.562;7.272;2022-08-03T03:01:20;100709.00;;;17.25;nan
36980;BME280;22891;50.562;7.272;2022-08-03T03:03:49;100705.00;;;17.18;nan
36980;BME280;22891;50.562;7.272;2022-08-03T03:06:17;100697.00;;;17.18;nan
36980;BME280;22891;50.562;7.272;2022-08-03T03:08:45;100706.00;;;17.04;nan
36980;BME280;22891;50.562;7.272;2022-08-03T03:11:12;100699.00;;;16.96;nan
36980;BME280;22891;50.562;7.272;2022-08-03T03:13:41;100689.00;;;17.06;nan
36980;BME280;22891;50.562;7.272;2022-08-03T03:16:11;100705.00;;;17.07;nan
36980;BME280;22891;50.562;7.272;2022-08-03T03:18:39;100693.00;;;17.02;nan
36980;BME280;22891;50.562;7.272;2022-08-03T03:21:06;100687.00;;;17.12;nan
36980;BME280;22891;50.562;7.272;2022-08-03T03:23:37;100696.00;;;17.27;nan
36980;BME280;22891;50.562;7.272;2022-08-03T03:26:04;100705.00;;;17.29;nan
36980;BME280;22891;50.562;7.272;2022-08-03T03:28:32;100719.00;;;17.44;nan
36980;BME280;22891;50.562;7.272;2022-08-03T03:30:58;100737.00;;;17.55;nan
36980;BME280;22891;50.562;7.272;2022-08-03T03:33:25;100731.00;;;17.35;nan
36980;BME280;22891;50.562;7.272;2022-08-03T03:35:52;100731.00;;;17.26;nan
36980;BME280;22891;50.562;7.272;2022-08-03T03:38:19;100734.00;;;17.24;nan
36980;BME280;22891;50.562;7.272;2022-08-03T03:40:45;100728.00;;;17.30;nan
36980;BME280;22891;50.562;7.272;2022-08-03T03:43:11;100726.00;;;17.32;nan
36980;BME280;22891;50.562;7.272;2022-08-03T03:45:40;100731.00;;;17.25;nan
36980;BME280;22891;50.562;7.272;2022-08-03T03:48:07;100735.00;;;17.29;nan
36980;BME280;22891;50.562;7.272;2022-08-03T03:50:34;100744.00;;;17.14;nan
36980;BME280;22891;50.562;7.272;2022-08-03T03:53:03;100728.00;;;16.93;nan
36980;BME280;22891;50.562;7.272;2022-08-03T03:55:29;100722.00;;;16.78;nan
36980;BME280;22891;50.562;7.272;2022-08-03T03:57:55;100703.00;;;16.73;nan
36980;BME280;22891;50.562;7.272;2022-08-03T04:00:22;100691.00;;;16.74;nan
36980;BME280;22891;50.562;7.272;2022-08-03T04:02:49;100688.00;;;16.74;nan
36980;BME280;22891;50.562;7.272;2022-08-03T04:05:14;100685.00;;;16.75;nan
36980;BME280;22891;50.562;7.272;2022-08-03T04:08:06;100682.00;;;16.79;nan
36980;BME280;22891;50.562;7.272;2022-08-03T04:12:43;100692.00;;;17.01;nan
36980;BME280;22891;50.562;7.272;2022-08-03T04:15:11;100691.00;;;16.85;nan
36980;BME280;22891;50.562;7.272;2022-08-03T04:17:40;100691.00;;;17.08;nan
36980;BME280;22891;50.562;7.272;2022-08-03T04:20:07;100689.00;;;17.13;nan
36980;BME280;22891;50.562;7.272;2022-08-03T04:22:35;100680.00;;;17.20;nan
36980;BME280;22891;50.562;7.272;2022-08-03T04:40:13;100674.00;;;16.84;nan
36980;BME280;22891;50.562;7.272;2022-08-03T04:42:41;100664.00;;;16.78;nan
36980;BME280;22891;50.562;7.272;2022-08-03T04:45:11;100673.00;;;16.90;nan
36980;BME280;22891;50.562;7.272;2022-08-03T04:47:38;100678.00;;;16.93;nan
36980;BME280;22891;50.562;7.272;2022-08-03T04:50:05;100682.00;;;16.89;nan
36980;BME280;22891;50.562;7.272;2022-08-03T04:52:33;100672.00;;;16.86;nan
36980;BME280;22891;50.562;7.272;2022-08-03T04:55:00;100671.00;;;16.92;nan
36980;BME280;22891;50.562;7.272;2022-08-03T04:57:26;100675.00;;;17.14;nan
36980;BME280;22891;50.562;7.272;2022-08-03T04:59:53;100670.00;;;17.19;nan
36980;BME280;22891;50.562;7.272;2022-08-03T05:02:21;100676.00;;;17.28;nan
36980;BME280;22891;50.562;7.272;2022-08-03T05:04:48;100690.00;;;17.46;nan
36980;BME280;22891;50.562;7.272;2022-08-03T05:07:16;100697.00;;;17.61;nan
36980;BME280;22891;50.562;7.272;2022-08-03T05:09:42;100700.00;;;17.71;nan
36980;BME280;22891;50.562;7.272;2022-08-03T05:12:09;100706.00;;;17.68;nan
36980;BME280;22891;50.562;7.272;2022-08-03T05:14:36;100703.00;;;17.80;nan
36980;BME280;22891;50.562;7.272;2022-08-03T05:17:07;100699.00;;;17.93;nan
36980;BME280;22891;50.562;7.272;2022-08-03T05:19:33;100706.00;;;17.91;nan
36980;BME280;22891;50.562;7.272;2022-08-03T05:21:59;100712.00;;;17.96;nan
36980;BME280;22891;50.562;7.272;2022-08-03T05:24:25;100734.00;;;18.24;nan
36980;BME280;22891;50.562;7.272;2022-08-03T05:26:51;100742.00;;;18.43;nan
36980;BME280;22891;50.562;7.272;2022-08-03T05:29:17;100762.00;;;18.49;nan
36980;BME280;22891;50.562;7.272;2022-08-03T05:31:44;100776.00;;;18.53;nan
36980;BME280;22891;50.562;7.272;2022-08-03T05:34:09;100794.00;;;18.74;nan
36980;BME280;22891;50.562;7.272;2022-08-03T05:36:35;100815.00;;;18.73;nan
36980;BME280;22891;50.562;7.272;2022-08-03T05:39:01;100823.00;;;18.87;nan
36980;BME280;22891;50.562;7.272;2022-08-03T05:41:27;100833.00;;;19.06;nan
36980;BME280;22891;50.562;7.272;2022-08-03T05:43:53;100839.00;;;19.24;nan
36980;BME280;22891;50.562;7.272;2022-08-03T05:46:21;100843.00;;;19.35;nan
36980;BME280;22891;50.562;7.272;2022-08-03T05:48:47;100853.00;;;19.32;nan
36980;BME280;22891;50.562;7.272;2022-08-03T05:51:13;100857.00;;;19.52;nan
36980;BME280;22891;50.562;7.272;2022-08-03T05:53:41;100885.00;;;19.61;nan
36980;BME280;22891;50.562;7.272;2022-08-03T05:56:08;100882.00;;;19.48;nan
36980;BME280;22891;50.562;7.272;2022-08-03T05:58:34;100894.00;;;19.70;nan
36980;BME280;22891;50.562;7.272;2022-08-03T06:01:00;100893.00;;;19.84;nan
36980;BME280;22891;50.562;7.272;2022-08-03T06:03:25;100908.00;;;19.88;nan
36980;BME280;22891;50.562;7.272;2022-08-03T06:05:53;100906.00;;;20.03;nan
36980;BME280;22891;50.562;7.272;2022-08-03T06:08:22;100929.00;;;20.24;nan
36980;BME280;22891;50.562;7.272;2022-08-03T06:10:48;100954.00;;;20.85;nan
36980;BME280;22891;50.562;7.272;2022-08-03T06:13:14;100969.00;;;21.10;nan
36980;BME280;22891;50.562;7.272;2022-08-03T06:15:40;100977.00;;;21.31;nan
36980;BME280;22891;50.562;7.272;2022-08-03T06:18:06;100982.00;;;21.31;nan
36980;BME280;22891;50.562;7.272;2022-08-03T06:20:32;100995.00;;;21.71;nan
36980;BME280;22891;50.562;7.272;2022-08-03T06:22:58;101000.00;;;21.81;nan
36980;BME280;22891;50.562;7.272;2022-08-03T06:25:25;101019.00;;;21.95;nan
36980;BME280;22891;50.562;7.272;2022-08-03T06:27:51;101022.00;;;21.86;nan
36980;BME280;22891;50.562;7.272;2022-08-03T06:30:17;101035.00;;;22.25;nan
36980;BME280;22891;50.562;7.272;2022-08-03T06:32:43;101045.00;;;22.22;nan
36980;BME280;22891;50.562;7.272;2022-08-03T06:35:09;101046.00;;;22.51;nan
36980;BME280;22891;50.562;7.272;2022-08-03T06:37:49;101038.00;;;22.45;nan
36980;BME280;22891;50.562;7.272;2022-08-03T06:40:19;101042.00;;;22.71;nan
36980;BME280;22891;50.562;7.272;2022-08-03T06:42:45;101044.00;;;22.63;nan
36980;BME280;22891;50.562;7.272;2022-08-03T06:45:11;101051.00;;;22.73;nan
36980;BME280;22891;50.562;7.272;2022-08-03T06:47:38;101058.00;;;23.17;nan
36980;BME280;22891;50.562;7.272;2022-08-03T06:50:05;101067.00;;;23.48;nan
36980;BME280;22891;50.562;7.272;2022-08-03T06:52:32;101068.00;;;23.64;nan
36980;BME280;22891;50.562;7.272;2022-08-03T06:54:58;101069.00;;;23.70;nan
36980;BME280;22891;50.562;7.272;2022-08-03T06:57:24;101077.00;;;23.89;nan
36980;BME280;22891;50.562;7.272;2022-08-03T06:59:50;101070.00;;;23.87;nan
36980;BME280;22891;50.562;7.272;2022-08-03T07:02:16;101068.00;;;23.89;nan
36980;BME280;22891;50.562;7.272;2022-08-03T07:04:46;101066.00;;;23.52;nan
36980;BME280;22891;50.562;7.272;2022-08-03T07:07:12;101064.00;;;23.81;nan
36980;BME280;22891;50.562;7.272;2022-08-03T07:09:38;101072.00;;;23.84;nan
36980;BME280;22891;50.562;7.272;2022-08-03T07:12:05;101063.00;;;24.28;nan
36980;BME280;22891;50.562;7.272;2022-08-03T07:14:31;101075.00;;;24.81;nan
36980;BME280;22891;50.562;7.272;2022-08-03T07:16:57;101077.00;;;24.86;nan
36980;BME280;22891;50.562;7.272;2022-08-03T07:19:23;101071.00;;;25.05;nan
36980;BME280;22891;50.562;7.272;2022-08-03T07:21:49;101079.00;;;24.87;nan
36980;BME280;22891;50.562;7.272;2022-08-03T07:24:15;101074.00;;;24.97;nan
36980;BME280;22891;50.562;7.272;2022-08-03T07:26:41;101076.00;;;25.21;nan
36980;BME280;22891;50.562;7.272;2022-08-03T07:29:07;101078.00;;;25.25;nan
36980;BME280;22891;50.562;7.272;2022-08-03T07:31:33;101070.00;;;25.35;nan
36980;BME280;22891;50.562;7.272;2022-08-03T07:33:59;101071.00;;;25.75;nan
36980;BME280;22891;50.562;7.272;2022-08-03T07:36:24;101065.00;;;26.32;nan
36980;BME280;22891;50.562;7.272;2022-08-03T07:38:51;101071.00;;;27.25;nan
36980;BME280;22891;50.562;7.272;2022-08-03T07:43:53;101067.00;;;27.82;nan
36980;BME280;22891;50.562;7.272;2022-08-03T07:46:24;101074.00;;;28.13;nan
36980;BME280;22891;50.562;7.272;2022-08-03T07:48:57;101074.00;;;28.76;nan
36980;BME280;22891;50.562;7.272;2022-08-03T07:51:24;101073.00;;;29.63;nan
36980;BME280;22891;50.562;7.272;2022-08-03T07:53:49;101069.00;;;29.96;nan
36980;BME280;22891;50.562;7.272;2022-08-03T07:56:15;101069.00;;;30.08;nan
36980;BME280;22891;50.562;7.272;2022-08-03T07:58:41;101070.00;;;30.02;nan
36980;BME280;22891;50.562;7.272;2022-08-03T08:01:07;101063.00;;;30.33;nan
36980;BME280;22891;50.562;7.272;2022-08-03T08:03:33;101067.00;;;30.22;nan
36980;BME280;22891;50.562;7.272;2022-08-03T08:06:00;101059.00;;;30.63;nan
36980;BME280;22891;50.562;7.272;2022-08-03T08:08:26;101063.00;;;30.32;nan
36980;BME280;22891;50.562;7.272;2022-08-03T08:10:52;101054.00;;;30.66;nan
36980;BME280;22891;50.562;7.272;2022-08-03T08:13:17;101055.00;;;30.83;nan
36980;BME280;22891;50.562;7.272;2022-08-03T08:15:43;101058.00;;;31.45;nan
36980;BME280;22891;50.562;7.272;2022-08-03T08:18:13;101045.00;;;31.09;nan
36980;BME280;22891;50.562;7.272;2022-08-03T08:20:41;101041.00;;;31.53;nan
36980;BME280;22891;50.562;7.272;2022-08-03T08:23:08;101043.00;;;32.61;nan
36980;BME280;22891;50.562;7.272;2022-08-03T08:25:34;101044.00;;;31.93;nan
36980;BME280;22891;50.562;7.272;2022-08-03T08:28:01;101046.00;;;31.98;nan
36980;BME280;22891;50.562;7.272;2022-08-03T08:30:31;101043.00;;;32.01;nan
36980;BME280;22891;50.562;7.272;2022-08-03T08:32:57;101040.00;;;32.61;nan
36980;BME280;22891;50.562;7.272;2022-08-03T08:35:24;101038.00;;;33.17;nan
36980;BME280;22891;50.562;7.272;2022-08-03T08:37:50;101034.00;;;33.66;nan
36980;BME280;22891;50.562;7.272;2022-08-03T08:40:19;101028.00;;;33.86;nan
36980;BME280;22891;50.562;7.272;2022-08-03T08:42:45;101031.00;;;33.48;nan
36980;BME280;22891;50.562;7.272;2022-08-03T08:45:12;101043.00;;;32.73;nan
36980;BME280;22891;50.562;7.272;2022-08-03T08:47:46;101033.00;;;32.67;nan
36980;BME280;22891;50.562;7.272;2022-08-03T08:50:13;101029.00;;;33.63;nan
36980;BME280;22891;50.562;7.272;2022-08-03T08:52:39;101028.00;;;33.54;nan
36980;BME280;22891;50.562;7.272;2022-08-03T08:55:09;101025.00;;;32.45;nan
36980;BME280;22891;50.562;7.272;2022-08-03T08:57:37;101026.00;;;32.26;nan
36980;BME280;22891;50.562;7.272;2022-08-03T09:00:09;101033.00;;;32.18;nan
36980;BME280;22891;50.562;7.272;2022-08-03T09:02:41;101030.00;;;32.61;nan
36980;BME280;22891;50.562;7.272;2022-08-03T09:05:12;101023.00;;;32.52;nan
36980;BME280;22891;50.562;7.272;2022-08-03T09:07:43;101029.00;;;33.64;nan
36980;BME280;22891;50.562;7.272;2022-08-03T09:10:12;101022.00;;;33.00;nan
36980;BME280;22891;50.562;7.272;2022-08-03T09:12:42;101020.00;;;34.63;nan
36980;BME280;22891;50.562;7.272;2022-08-03T09:15:23;101015.00;;;34.48;nan
36980;BME280;22891;50.562;7.272;2022-08-03T09:17:51;101021.00;;;34.67;nan
36980;BME280;22891;50.562;7.272;2022-08-03T09:20:20;101017.00;;;33.87;nan
36980;BME280;22891;50.562;7.272;2022-08-03T09:22:55;101012.00;;;34.48;nan
36980;BME280;22891;50.562;7.272;2022-08-03T09:25:35;101009.00;;;35.51;nan
36980;BME280;22891;50.562;7.272;2022-08-03T09:28:12;101016.00;;;35.56;nan
36980;BME280;22891;50.562;7.272;2022-08-03T09:30:41;101006.00;;;36.20;nan
36980;BME280;22891;50.562;7.272;2022-08-03T09:33:13;101015.00;;;36.39;nan
36980;BME280;22891;50.562;7.272;2022-08-03T09:35:47;101017.00;;;36.06;nan
36980;BME280;22891;50.562;7.272;2022-08-03T09:38:24;101007.00;;;36.24;nan
36980;BME280;22891;50.562;7.272;2022-08-03T09:40:53;101001.00;;;35.49;nan
36980;BME280;22891;50.562;7.272;2022-08-03T09:43:19;101001.00;;;36.32;nan
36980;BME280;22891;50.562;7.272;2022-08-03T09:45:45;101004.00;;;36.62;nan
36980;BME280;22891;50.562;7.272;2022-08-03T09:48:29;100997.00;;;36.93;nan
36980;BME280;22891;50.562;7.272;2022-08-03T09:50:57;101002.00;;;36.41;nan
36980;BME280;22891;50.562;7.272;2022-08-03T09:53:24;101006.00;;;35.83;nan
36980;BME280;22891;50.562;7.272;2022-08-03T09:56:01;101007.00;;;36.05;nan
36980;BME280;22891;50.562;7.272;2022-08-03T09:58:29;100999.00;;;36.91;nan
36980;BME280;22891;50.562;7.272;2022-08-03T10:01:03;101001.00;;;35.54;nan
36980;BME280;22891;50.562;7.272;2022-08-03T10:03:31;101000.00;;;36.72;nan
36980;BME280;22891;50.562;7.272;2022-08-03T10:06:16;100999.00;;;38.14;nan
36980;BME280;22891;50.562;7.272;2022-08-03T10:08:45;100990.00;;;37.55;nan
36980;BME280;22891;50.562;7.272;2022-08-03T10:11:11;100996.00;;;36.78;nan
36980;BME280;22891;50.562;7.272;2022-08-03T10:13:37;100993.00;;;37.95;nan
36980;BME280;22891;50.562;7.272;2022-08-03T10:16:04;100989.00;;;37.70;nan
36980;BME280;22891;50.562;7.272;2022-08-03T10:18:31;100986.00;;;37.24;nan
36980;BME280;22891;50.562;7.272;2022-08-03T10:21:02;100980.00;;;36.07;nan
36980;BME280;22891;50.562;7.272;2022-08-03T10:23:34;100980.00;;;36.76;nan
36980;BME280;22891;50.562;7.272;2022-08-03T10:26:03;100983.00;;;37.39;nan
36980;BME280;22891;50.562;7.272;2022-08-03T10:28:36;100973.00;;;37.89;nan
36980;BME280;22891;50.562;7.272;2022-08-03T10:31:05;100968.00;;;37.35;nan
36980;BME280;22891;50.562;7.272;2022-08-03T10:33:36;100972.00;;;37.43;nan
36980;BME280;22891;50.562;7.272;2022-08-03T10:36:04;100966.00;;;37.51;nan
36980;BME280;22891;50.562;7.272;2022-08-03T10:38:37;100964.00;;;37.32;nan
36980;BME280;22891;50.562;7.272;2022-08-03T10:41:03;100968.00;;;37.65;nan
36980;BME280;22891;50.562;7.272;2022-08-03T10:43:37;100966.00;;;37.37;nan
36980;BME280;22891;50.562;7.272;2022-08-03T10:46:07;100966.00;;;37.71;nan
36980;BME280;22891;50.562;7.272;2022-08-03T10:48:34;100950.00;;;36.83;nan
36980;BME280;22891;50.562;7.272;2022-08-03T10:51:01;100946.00;;;36.33;nan
36980;BME280;22891;50.562;7.272;2022-08-03T10:53:37;100930.00;;;36.34;nan
36980;BME280;22891;50.562;7.272;2022-08-03T10:56:05;100934.00;;;36.29;nan
36980;BME280;22891;50.562;7.272;2022-08-03T10:58:50;100927.00;;;36.23;nan
36980;BME280;22891;50.562;7.272;2022-08-03T11:01:18;100920.00;;;36.68;nan
36980;BME280;22891;50.562;7.272;2022-08-03T11:04:45;100928.00;;;37.10;nan
36980;BME280;22891;50.562;7.272;2022-08-03T11:07:24;100929.00;;;36.61;nan
36980;BME280;22891;50.562;7.272;2022-08-03T11:09:54;100921.00;;;37.99;nan
36980;BME280;22891;50.562;7.272;2022-08-03T11:12:30;100918.00;;;37.82;nan
36980;BME280;22891;50.562;7.272;2022-08-03T11:15:07;100924.00;;;37.62;nan
36980;BME280;22891;50.562;7.272;2022-08-03T11:17:34;100916.00;;;38.40;nan
36980;BME280;22891;50.562;7.272;2022-08-03T11:20:01;100914.00;;;37.63;nan
36980;BME280;22891;50.562;7.272;2022-08-03T11:22:47;100916.00;;;37.93;nan
36980;BME280;22891;50.562;7.272;2022-08-03T11:25:13;100914.00;;;38.06;nan
36980;BME280;22891;50.562;7.272;2022-08-03T11:27:41;100909.00;;;38.11;nan
36980;BME280;22891;50.562;7.272;2022-08-03T11:30:25;100906.00;;;37.03;nan
36980;BME280;22891;50.562;7.272;2022-08-03T11:32:56;100904.00;;;36.95;nan
36980;BME280;22891;50.562;7.272;2022-08-03T11:35:31;100908.00;;;37.49;nan
36980;BME280;22891;50.562;7.272;2022-08-03T11:38:02;100908.00;;;37.82;nan
36980;BME280;22891;50.562;7.272;2022-08-03T11:41:02;100901.00;;;37.70;nan
36980;BME280;22891;50.562;7.272;2022-08-03T11:43:48;100903.00;;;37.33;nan
36980;BME280;22891;50.562;7.272;2022-08-03T11:46:14;100900.00;;;38.74;nan
36980;BME280;22891;50.562;7.272;2022-08-03T11:48:47;100906.00;;;37.68;nan
36980;BME280;22891;50.562;7.272;2022-08-03T11:51:28;100898.00;;;36.37;nan
36980;BME280;22891;50.562;7.272;2022-08-03T11:53:56;100903.00;;;35.86;nan
36980;BME280;22891;50.562;7.272;2022-08-03T11:56:23;100896.00;;;36.06;nan
36980;BME280;22891;50.562;7.272;2022-08-03T11:58:50;100891.00;;;35.66;nan
36980;BME280;22891;50.562;7.272;2022-08-03T12:01:19;100880.00;;;35.75;nan
36980;BME280;22891;50.562;7.272;2022-08-03T12:03:45;100890.00;;;35.43;nan
36980;BME280;22891;50.562;7.272;2022-08-03T12:06:13;100889.00;;;36.84;nan
36980;BME280;22891;50.562;7.272;2022-08-03T12:08:40;100889.00;;;37.44;nan
36980;BME280;22891;50.562;7.272;2022-08-03T12:11:09;100891.00;;;37.92;nan
36980;BME280;22891;50.562;7.272;2022-08-03T12:13:42;100884.00;;;38.32;nan
36980;BME280;22891;50.562;7.272;2022-08-03T12:16:09;100875.00;;;37.39;nan
36980;BME280;22891;50.562;7.272;2022-08-03T12:18:42;100869.00;;;36.83;nan
36980;BME280;22891;50.562;7.272;2022-08-03T12:21:09;100872.00;;;37.50;nan
36980;BME280;22891;50.562;7.272;2022-08-03T12:23:36;100872.00;;;38.33;nan
36980;BME280;22891;50.562;7.272;2022-08-03T12:26:06;100879.00;;;38.42;nan
36980;BME280;22891;50.562;7.272;2022-08-03T12:28:32;100876.00;;;38.45;nan
36980;BME280;22891;50.562;7.272;2022-08-03T12:31:04;100884.00;;;38.85;nan
36980;BME280;22891;50.562;7.272;2022-08-03T12:33:31;100867.00;;;38.04;nan
36980;BME280;22891;50.562;7.272;2022-08-03T12:36:31;100855.00;;;37.74;nan
36980;BME280;22891;50.562;7.272;2022-08-03T12:39:03;100860.00;;;38.68;nan
36980;BME280;22891;50.562;7.272;2022-08-03T12:41:33;100864.00;;;38.60;nan
36980;BME280;22891;50.562;7.272;2022-08-03T12:44:01;100862.00;;;38.82;nan
36980;BME280;22891;50.562;7.272;2022-08-03T12:46:33;100863.00;;;38.52;nan
36980;BME280;22891;50.562;7.272;2022-08-03T12:49:11;100858.00;;;38.96;nan
36980;BME280;22891;50.562;7.272;2022-08-03T12:51:57;100858.00;;;38.43;nan
36980;BME280;22891;50.562;7.272;2022-08-03T12:54:27;100858.00;;;39.03;nan
36980;BME280;22891;50.562;7.272;2022-08-03T12:57:01;100854.00;;;38.65;nan
36980;BME280;22891;50.562;7.272;2022-08-03T12:59:39;100854.00;;;38.20;nan
36980;BME280;22891;50.562;7.272;2022-08-03T13:02:18;100853.00;;;38.32;nan
36980;BME280;22891;50.562;7.272;2022-08-03T13:04:46;100850.00;;;38.47;nan
36980;BME280;22891;50.562;7.272;2022-08-03T13:07:12;100853.00;;;38.49;nan
36980;BME280;22891;50.562;7.272;2022-08-03T13:09:44;100845.00;;;38.54;nan
36980;BME280;22891;50.562;7.272;2022-08-03T13:12:13;100837.00;;;38.51;nan
36980;BME280;22891;50.562;7.272;2022-08-03T13:14:40;100843.00;;;38.56;nan
36980;BME280;22891;50.562;7.272;2022-08-03T13:17:07;100837.00;;;37.93;nan
36980;BME280;22891;50.562;7.272;2022-08-03T13:19:35;100836.00;;;38.04;nan
36980;BME280;22891;50.562;7.272;2022-08-03T13:22:14;100840.00;;;37.92;nan
36980;BME280;22891;50.562;7.272;2022-08-03T13:24:41;100837.00;;;38.27;nan
36980;BME280;22891;50.562;7.272;2022-08-03T13:27:07;100835.00;;;37.47;nan
36980;BME280;22891;50.562;7.272;2022-08-03T13:29:33;100828.00;;;37.60;nan
36980;BME280;22891;50.562;7.272;2022-08-03T13:32:00;100834.00;;;38.04;nan
36980;BME280;22891;50.562;7.272;2022-08-03T13:34:26;100835.00;;;37.80;nan
36980;BME280;22891;50.562;7.272;2022-08-03T13:36:52;100824.00;;;37.78;nan
36980;BME280;22891;50.562;7.272;2022-08-03T13:39:19;100815.00;;;37.69;nan
36980;BME280;22891;50.562;7.272;2022-08-03T13:41:45;100818.00;;;37.54;nan
36980;BME280;22891;50.562;7.272;2022-08-03T13:44:12;100814.00;;;37.71;nan
36980;BME280;22891;50.562;7.272;2022-08-03T13:46:39;100818.00;;;37.54;nan
36980;BME280;22891;50.562;7.272;2022-08-03T13:49:05;100813.00;;;37.80;nan
36980;BME280;22891;50.562;7.272;2022-08-03T13:51:32;100795.00;;;38.02;nan
36980;BME280;22891;50.562;7.272;2022-08-03T13:53:59;100805.00;;;38.17;nan
36980;BME280;22891;50.562;7.272;2022-08-03T13:56:26;100801.00;;;37.89;nan